sensor_id;sensor_type;location;lat;lon;timestamp;P1;P2;P0
46302;PMS7003;32029;51.358;5.628;2022-08-20T00:00:35;16.67;14.67;11.00
46302;PMS7003;32029;51.358;5.628;2022-08-20T00:03:09;15.00;15.00;11.67
46302;PMS7003;32029;51.358;5.628;2022-08-20T00:05:44;17.67;16.00;12.33
46302;PMS7003;32029;51.358;5.628;2022-08-20T00:08:15;18.00;15.67;12.00
46302;PMS7003;32029;51.358;5.628;2022-08-20T00:10:43;17.00;15.67;11.33
46302;PMS7003;32029;51.358;5.628;2022-08-20T00:13:12;16.33;15.00;11.00
46302;PMS7003;32029;51.358;5.628;2022-08-20T00:15:42;13.00;12.00;8.33
46302;PMS7003;32029;51.358;5.628;2022-08-20T00:18:13;19.00;16.00;12.00
46302;PMS7003;32029;51.358;5.628;2022-08-20T00:20:42;19.67;17.00;13.00
46302;PMS7003;32029;51.358;5.628;2022-08-20T00:23:11;18.00;18.00;11.50
46302;PMS7003;32029;51.358;5.628;2022-08-20T00:25:39;18.33;14.67;12.00
46302;PMS7003;32029;51.358;5.628;2022-08-20T00:28:06;19.00;15.33;11.00
46302;PMS7003;32029;51.358;5.628;2022-08-20T00:30:34;15.50;14.00;12.00
46302;PMS7003;32029;51.358;5.628;2022-08-20T00:33:07;11.00;10.00;8.33
46302;PMS7003;32029;51.358;5.628;2022-08-20T00:35:39;16.50;15.50;11.50
46302;PMS7003;32029;51.358;5.628;2022-08-20T00:38:09;16.33;16.00;11.00
46302;PMS7003;32029;51.358;5.628;2022-08-20T00:40:37;18.33;16.67;10.67
46302;PMS7003;32029;51.358;5.628;2022-08-20T00:43:23;14.00;14.00;11.00
46302;PMS7003;32029;51.358;5.628;2022-08-20T00:45:54;13.00;12.00;9.50
46302;PMS7003;32029;51.358;5.628;2022-08-20T00:48:23;15.67;15.00;11.00
46302;PMS7003;32029;51.358;5.628;2022-08-20T00:50:53;17.50;17.50;13.50
46302;PMS7003;32029;51.358;5.628;2022-08-20T00:53:24;18.00;17.00;12.00
46302;PMS7003;32029;51.358;5.628;2022-08-20T00:55:52;16.00;16.00;13.50
46302;PMS7003;32029;51.358;5.628;2022-08-20T00:58:20;21.50;17.50;13.00
46302;PMS7003;32029;51.358;5.628;2022-08-20T01:00:48;16.50;16.50;11.50
46302;PMS7003;32029;51.358;5.628;2022-08-20T01:03:16;21.50;18.50;12.00
46302;PMS7003;32029;51.358;5.628;2022-08-20T01:05:45;19.00;15.50;13.00
46302;PMS7003;32029;51.358;5.628;2022-08-20T01:08:16;17.67;12.67;11.00
46302;PMS7003;32029;51.358;5.628;2022-08-20T01:10:46;20.00;18.00;12.50
46302;PMS7003;32029;51.358;5.628;2022-08-20T01:13:17;18.00;17.67;13.67
46302;PMS7003;32029;51.358;5.628;2022-08-20T01:15:49;17.00;17.00;13.67
46302;PMS7003;32029;51.358;5.628;2022-08-20T01:18:21;20.00;19.00;13.50
46302;PMS7003;32029;51.358;5.628;2022-08-20T01:20:54;18.33;18.33;12.67
46302;PMS7003;32029;51.358;5.628;2022-08-20T01:26:13;21.00;20.00;13.50
46302;PMS7003;32029;51.358;5.628;2022-08-20T01:28:52;20.00;19.50;14.00
46302;PMS7003;32029;51.358;5.628;2022-08-20T01:31:31;24.00;20.50;14.00
46302;PMS7003;32029;51.358;5.628;2022-08-20T01:34:00;25.67;22.33;13.00
46302;PMS7003;32029;51.358;5.628;2022-08-20T01:36:39;18.00;18.00;13.00
46302;PMS7003;32029;51.358;5.628;2022-08-20T01:39:14;20.00;20.00;14.00
46302;PMS7003;32029;51.358;5.628;2022-08-20T01:44:49;24.33;22.00;16.00
46302;PMS7003;32029;51.358;5.628;2022-08-20T01:47:22;18.67;17.67;13.33
46302;PMS7003;32029;51.358;5.628;2022-08-20T01:49:59;23.33;22.33;13.33
46302;PMS7003;32029;51.358;5.628;2022-08-20T01:53:17;20.67;17.00;12.67
46302;PMS7003;32029;51.358;5.628;2022-08-20T01:55:24;20.00;19.67;12.33
46302;PMS7003;32029;51.358;5.628;2022-08-20T01:57:53;28.00;22.00;15.00
46302;PMS7003;32029;51.358;5.628;2022-08-20T02:00:21;23.00;23.00;15.67
46302;PMS7003;32029;51.358;5.628;2022-08-20T02:02:49;27.00;23.00;16.00
46302;PMS7003;32029;51.358;5.628;2022-08-20T02:05:18;25.33;24.00;14.33
46302;PMS7003;32029;51.358;5.628;2022-08-20T02:07:46;24.67;23.33;16.33
46302;PMS7003;32029;51.358;5.628;2022-08-20T02:10:15;22.00;19.67;15.00
46302;PMS7003;32029;51.358;5.628;2022-08-20T02:12:44;31.00;27.33;18.33
46302;PMS7003;32029;51.358;5.628;2022-08-20T02:15:12;30.33;26.00;18.67
46302;PMS7003;32029;51.358;5.628;2022-08-20T02:17:41;29.00;26.25;17.75
46302;PMS7003;32029;51.358;5.628;2022-08-20T02:20:10;28.00;24.00;16.75
46302;PMS7003;32029;51.358;5.628;2022-08-20T02:22:49;28.00;24.33;16.00
46302;PMS7003;32029;51.358;5.628;2022-08-20T02:25:20;32.00;29.00;18.00
46302;PMS7003;32029;51.358;5.628;2022-08-20T02:27:49;20.67;19.67;13.67
46302;PMS7003;32029;51.358;5.628;2022-08-20T02:30:22;28.33;24.67;15.00
46302;PMS7003;32029;51.358;5.628;2022-08-20T02:32:51;28.33;26.00;17.00
46302;PMS7003;32029;51.358;5.628;2022-08-20T02:35:19;30.00;28.67;19.33
46302;PMS7003;32029;51.358;5.628;2022-08-20T02:37:46;30.67;28.67;19.00
46302;PMS7003;32029;51.358;5.628;2022-08-20T02:40:16;32.25;29.75;20.00
46302;PMS7003;32029;51.358;5.628;2022-08-20T02:42:45;28.67;26.00;20.00
46302;PMS7003;32029;51.358;5.628;2022-08-20T02:45:15;33.25;30.75;18.75
46302;PMS7003;32029;51.358;5.628;2022-08-20T02:47:44;28.00;26.00;17.33
46302;PMS7003;32029;51.358;5.628;2022-08-20T02:50:14;30.75;29.75;20.00
46302;PMS7003;32029;51.358;5.628;2022-08-20T02:52:43;34.33;30.33;19.67
46302;PMS7003;32029;51.358;5.628;2022-08-20T02:55:10;31.00;29.33;19.33
46302;PMS7003;32029;51.358;5.628;2022-08-20T02:57:40;32.67;30.00;18.00
46302;PMS7003;32029;51.358;5.628;2022-08-20T03:00:09;35.00;30.00;19.67
46302;PMS7003;32029;51.358;5.628;2022-08-20T03:02:38;32.67;30.00;20.00
46302;PMS7003;32029;51.358;5.628;2022-08-20T03:05:06;32.33;30.00;20.00
46302;PMS7003;32029;51.358;5.628;2022-08-20T03:07:45;32.75;29.75;18.75
46302;PMS7003;32029;51.358;5.628;2022-08-20T03:10:14;39.33;31.67;20.00
46302;PMS7003;32029;51.358;5.628;2022-08-20T03:12:42;34.75;32.00;20.00
46302;PMS7003;32029;51.358;5.628;2022-08-20T03:15:10;31.25;29.00;17.50
46302;PMS7003;32029;51.358;5.628;2022-08-20T03:17:38;35.25;31.25;19.25
46302;PMS7003;32029;51.358;5.628;2022-08-20T03:20:06;34.67;31.00;20.00
46302;PMS7003;32029;51.358;5.628;2022-08-20T03:22:35;42.67;34.67;21.67
46302;PMS7003;32029;51.358;5.628;2022-08-20T03:25:03;36.00;30.50;19.00
46302;PMS7003;32029;51.358;5.628;2022-08-20T03:27:31;46.75;35.75;22.50
46302;PMS7003;32029;51.358;5.628;2022-08-20T03:29:58;30.33;29.00;18.00
46302;PMS7003;32029;51.358;5.628;2022-08-20T03:32:25;36.00;31.33;20.00
46302;PMS7003;32029;51.358;5.628;2022-08-20T03:34:52;29.33;26.67;17.00
46302;PMS7003;32029;51.358;5.628;2022-08-20T03:37:20;41.67;35.00;23.00
46302;PMS7003;32029;51.358;5.628;2022-08-20T03:39:48;37.75;32.50;20.75
46302;PMS7003;32029;51.358;5.628;2022-08-20T03:42:16;39.75;34.00;21.25
46302;PMS7003;32029;51.358;5.628;2022-08-20T03:44:43;42.33;35.00;22.00
46302;PMS7003;32029;51.358;5.628;2022-08-20T03:47:10;36.75;31.25;18.75
46302;PMS7003;32029;51.358;5.628;2022-08-20T03:49:37;32.00;30.33;20.00
46302;PMS7003;32029;51.358;5.628;2022-08-20T03:52:05;38.33;34.00;22.67
46302;PMS7003;32029;51.358;5.628;2022-08-20T03:54:32;33.00;28.00;20.00
46302;PMS7003;32029;51.358;5.628;2022-08-20T03:56:59;42.67;35.67;21.33
46302;PMS7003;32029;51.358;5.628;2022-08-20T03:59:28;32.67;30.67;21.00
46302;PMS7003;32029;51.358;5.628;2022-08-20T04:01:59;38.67;35.00;22.33
46302;PMS7003;32029;51.358;5.628;2022-08-20T04:04:27;34.67;31.00;20.00
46302;PMS7003;32029;51.358;5.628;2022-08-20T04:06:54;40.00;31.00;20.67
46302;PMS7003;32029;51.358;5.628;2022-08-20T04:09:22;35.00;32.00;21.00
46302;PMS7003;32029;51.358;5.628;2022-08-20T04:11:50;34.75;31.75;20.50
46302;PMS7003;32029;51.358;5.628;2022-08-20T04:14:26;25.33;24.33;17.00
46302;PMS7003;32029;51.358;5.628;2022-08-20T04:16:53;27.00;25.67;17.33
46302;PMS7003;32029;51.358;5.628;2022-08-20T04:19:20;29.33;25.67;17.33
46302;PMS7003;32029;51.358;5.628;2022-08-20T04:21:48;37.50;29.50;19.25
46302;PMS7003;32029;51.358;5.628;2022-08-20T04:24:15;32.33;29.00;19.67
46302;PMS7003;32029;51.358;5.628;2022-08-20T04:26:42;28.00;26.33;17.00
46302;PMS7003;32029;51.358;5.628;2022-08-20T04:29:09;28.00;25.33;16.00
46302;PMS7003;32029;51.358;5.628;2022-08-20T04:31:37;29.33;27.67;17.00
46302;PMS7003;32029;51.358;5.628;2022-08-20T04:34:04;28.33;26.67;17.67
46302;PMS7003;32029;51.358;5.628;2022-08-20T04:36:35;33.50;27.25;16.00
46302;PMS7003;32029;51.358;5.628;2022-08-20T04:39:02;23.67;21.67;16.00
46302;PMS7003;32029;51.358;5.628;2022-08-20T04:41:31;25.67;24.67;16.00
46302;PMS7003;32029;51.358;5.628;2022-08-20T04:43:59;32.75;30.00;20.50
46302;PMS7003;32029;51.358;5.628;2022-08-20T04:46:27;31.50;30.00;18.50
46302;PMS7003;32029;51.358;5.628;2022-08-20T04:48:54;34.67;31.33;19.33
46302;PMS7003;32029;51.358;5.628;2022-08-20T04:51:24;30.75;28.75;17.75
46302;PMS7003;32029;51.358;5.628;2022-08-20T04:53:51;27.33;26.33;16.67
46302;PMS7003;32029;51.358;5.628;2022-08-20T04:56:21;32.75;30.50;19.75
46302;PMS7003;32029;51.358;5.628;2022-08-20T04:58:53;35.67;32.00;21.00
46302;PMS7003;32029;51.358;5.628;2022-08-20T05:01:24;32.25;28.50;20.00
46302;PMS7003;32029;51.358;5.628;2022-08-20T05:03:53;33.67;30.67;20.00
46302;PMS7003;32029;51.358;5.628;2022-08-20T05:06:21;41.00;33.00;22.33
46302;PMS7003;32029;51.358;5.628;2022-08-20T05:08:51;37.00;32.33;20.33
46302;PMS7003;32029;51.358;5.628;2022-08-20T05:11:19;39.00;33.00;20.00
46302;PMS7003;32029;51.358;5.628;2022-08-20T05:13:48;36.75;32.75;20.00
46302;PMS7003;32029;51.358;5.628;2022-08-20T05:16:19;38.00;33.00;22.00
46302;PMS7003;32029;51.358;5.628;2022-08-20T05:18:46;40.00;34.00;20.33
46302;PMS7003;32029;51.358;5.628;2022-08-20T05:21:13;38.00;32.67;21.00
46302;PMS7003;32029;51.358;5.628;2022-08-20T05:23:41;42.50;33.50;20.00
46302;PMS7003;32029;51.358;5.628;2022-08-20T05:26:09;25.00;24.00;16.00
46302;PMS7003;32029;51.358;5.628;2022-08-20T05:28:37;31.67;29.00;18.33
46302;PMS7003;32029;51.358;5.628;2022-08-20T05:31:06;27.00;23.00;15.50
46302;PMS7003;32029;51.358;5.628;2022-08-20T05:33:35;27.67;26.33;17.67
46302;PMS7003;32029;51.358;5.628;2022-08-20T05:36:05;35.00;29.33;17.00
46302;PMS7003;32029;51.358;5.628;2022-08-20T05:38:33;24.00;22.67;16.00
46302;PMS7003;32029;51.358;5.628;2022-08-20T05:41:03;26.00;24.67;17.00
46302;PMS7003;32029;51.358;5.628;2022-08-20T05:43:31;31.33;24.67;16.00
46302;PMS7003;32029;51.358;5.628;2022-08-20T05:45:59;22.67;22.00;14.00
46302;PMS7003;32029;51.358;5.628;2022-08-20T05:48:27;26.33;25.33;16.33
46302;PMS7003;32029;51.358;5.628;2022-08-20T05:50:55;31.25;23.75;15.25
46302;PMS7003;32029;51.358;5.628;2022-08-20T05:53:24;31.75;25.25;16.00
46302;PMS7003;32029;51.358;5.628;2022-08-20T05:55:54;24.00;21.33;15.00
46302;PMS7003;32029;51.358;5.628;2022-08-20T05:58:23;29.25;26.25;16.50
46302;PMS7003;32029;51.358;5.628;2022-08-20T06:00:53;26.00;24.33;18.00
46302;PMS7003;32029;51.358;5.628;2022-08-20T06:03:21;31.67;26.00;17.00
46302;PMS7003;32029;51.358;5.628;2022-08-20T06:06:07;29.33;26.33;15.33
46302;PMS7003;32029;51.358;5.628;2022-08-20T06:08:35;28.67;24.00;15.00
46302;PMS7003;32029;51.358;5.628;2022-08-20T06:11:03;34.75;29.50;18.00
46302;PMS7003;32029;51.358;5.628;2022-08-20T06:13:30;30.67;27.33;18.00
46302;PMS7003;32029;51.358;5.628;2022-08-20T06:15:58;29.33;26.00;17.67
46302;PMS7003;32029;51.358;5.628;2022-08-20T06:18:26;27.00;23.67;16.33
46302;PMS7003;32029;51.358;5.628;2022-08-20T06:20:52;23.00;20.00;10.00
46302;PMS7003;32029;51.358;5.628;2022-08-20T06:23:20;24.33;23.33;16.33
46302;PMS7003;32029;51.358;5.628;2022-08-20T06:25:50;27.33;25.00;16.00
46302;PMS7003;32029;51.358;5.628;2022-08-20T06:28:19;33.00;29.00;18.00
46302;PMS7003;32029;51.358;5.628;2022-08-20T06:30:46;25.00;23.33;16.67
46302;PMS7003;32029;51.358;5.628;2022-08-20T06:33:13;31.33;23.00;14.33
46302;PMS7003;32029;51.358;5.628;2022-08-20T06:35:41;25.67;19.00;10.00
46302;PMS7003;32029;51.358;5.628;2022-08-20T06:38:10;30.33;25.33;16.00
46302;PMS7003;32029;51.358;5.628;2022-08-20T06:40:39;35.00;29.25;18.25
46302;PMS7003;32029;51.358;5.628;2022-08-20T06:43:07;35.75;31.75;20.00
46302;PMS7003;32029;51.358;5.628;2022-08-20T06:45:38;33.50;29.75;19.00
46302;PMS7003;32029;51.358;5.628;2022-08-20T06:48:11;33.25;30.00;18.75
46302;PMS7003;32029;51.358;5.628;2022-08-20T06:50:40;35.33;30.00;19.00
46302;PMS7003;32029;51.358;5.628;2022-08-20T06:53:10;37.00;31.33;19.33
46302;PMS7003;32029;51.358;5.628;2022-08-20T06:55:40;37.33;31.67;20.33
46302;PMS7003;32029;51.358;5.628;2022-08-20T06:58:12;35.75;30.25;20.00
46302;PMS7003;32029;51.358;5.628;2022-08-20T07:00:40;34.00;31.25;20.00
46302;PMS7003;32029;51.358;5.628;2022-08-20T07:03:09;41.33;33.33;20.33
46302;PMS7003;32029;51.358;5.628;2022-08-20T07:05:39;46.00;35.33;22.00
46302;PMS7003;32029;51.358;5.628;2022-08-20T07:08:10;40.00;33.33;20.00
46302;PMS7003;32029;51.358;5.628;2022-08-20T07:10:41;42.75;33.00;20.50
46302;PMS7003;32029;51.358;5.628;2022-08-20T07:13:09;38.67;32.67;20.00
46302;PMS7003;32029;51.358;5.628;2022-08-20T07:15:38;38.25;31.25;19.00
46302;PMS7003;32029;51.358;5.628;2022-08-20T07:18:05;47.67;37.67;22.00
46302;PMS7003;32029;51.358;5.628;2022-08-20T07:20:33;46.25;36.00;21.25
46302;PMS7003;32029;51.358;5.628;2022-08-20T07:23:02;36.00;30.67;18.00
46302;PMS7003;32029;51.358;5.628;2022-08-20T07:25:29;38.00;32.00;20.33
46302;PMS7003;32029;51.358;5.628;2022-08-20T07:28:01;44.25;36.50;22.50
46302;PMS7003;32029;51.358;5.628;2022-08-20T07:30:31;46.50;37.00;22.00
46302;PMS7003;32029;51.358;5.628;2022-08-20T07:33:17;46.50;38.25;23.00
46302;PMS7003;32029;51.358;5.628;2022-08-20T07:35:45;46.67;38.33;22.67
46302;PMS7003;32029;51.358;5.628;2022-08-20T07:38:16;46.25;35.00;21.50
46302;PMS7003;32029;51.358;5.628;2022-08-20T07:40:57;50.75;38.00;23.00
46302;PMS7003;32029;51.358;5.628;2022-08-20T07:43:27;51.33;42.00;24.00
46302;PMS7003;32029;51.358;5.628;2022-08-20T07:45:56;49.00;38.00;23.00
46302;PMS7003;32029;51.358;5.628;2022-08-20T07:48:27;48.67;38.33;23.00
46302;PMS7003;32029;51.358;5.628;2022-08-20T07:50:57;45.25;37.00;22.25
46302;PMS7003;32029;51.358;5.628;2022-08-20T07:53:26;45.67;36.00;23.00
46302;PMS7003;32029;51.358;5.628;2022-08-20T07:55:54;42.00;33.33;21.00
46302;PMS7003;32029;51.358;5.628;2022-08-20T07:58:21;40.67;32.33;20.00
46302;PMS7003;32029;51.358;5.628;2022-08-20T08:00:50;42.00;36.00;23.00
46302;PMS7003;32029;51.358;5.628;2022-08-20T08:03:18;44.33;35.33;21.67
46302;PMS7003;32029;51.358;5.628;2022-08-20T08:05:46;45.00;37.25;22.00
46302;PMS7003;32029;51.358;5.628;2022-08-20T08:08:18;43.25;34.00;22.00
46302;PMS7003;32029;51.358;5.628;2022-08-20T08:10:51;44.50;36.25;22.00
46302;PMS7003;32029;51.358;5.628;2022-08-20T08:13:22;43.67;33.00;20.33
46302;PMS7003;32029;51.358;5.628;2022-08-20T08:15:55;49.00;38.25;22.50
46302;PMS7003;32029;51.358;5.628;2022-08-20T08:18:35;42.67;34.67;21.33
46302;PMS7003;32029;51.358;5.628;2022-08-20T08:21:07;44.25;35.00;23.00
46302;PMS7003;32029;51.358;5.628;2022-08-20T08:23:38;43.67;35.67;22.33
46302;PMS7003;32029;51.358;5.628;2022-08-20T08:26:11;48.00;39.67;23.00
46302;PMS7003;32029;51.358;5.628;2022-08-20T08:28:40;44.67;36.00;22.33
46302;PMS7003;32029;51.358;5.628;2022-08-20T08:31:10;44.00;36.00;20.67
46302;PMS7003;32029;51.358;5.628;2022-08-20T08:33:37;45.00;35.50;21.50
46302;PMS7003;32029;51.358;5.628;2022-08-20T08:36:08;45.00;34.75;20.75
46302;PMS7003;32029;51.358;5.628;2022-08-20T08:38:38;44.50;35.50;21.25
46302;PMS7003;32029;51.358;5.628;2022-08-20T08:41:12;43.33;35.67;22.00
46302;PMS7003;32029;51.358;5.628;2022-08-20T08:43:48;44.25;34.75;20.50
46302;PMS7003;32029;51.358;5.628;2022-08-20T08:46:22;40.50;33.75;20.50
46302;PMS7003;32029;51.358;5.628;2022-08-20T08:48:52;43.33;33.67;21.00
46302;PMS7003;32029;51.358;5.628;2022-08-20T08:51:28;38.25;32.50;20.50
46302;PMS7003;32029;51.358;5.628;2022-08-20T08:54:02;41.00;33.67;21.00
46302;PMS7003;32029;51.358;5.628;2022-08-20T08:56:32;46.25;35.50;21.00
46302;PMS7003;32029;51.358;5.628;2022-08-20T08:59:02;45.67;37.00;21.33
46302;PMS7003;32029;51.358;5.628;2022-08-20T09:01:38;42.00;35.00;21.33
46302;PMS7003;32029;51.358;5.628;2022-08-20T09:04:09;41.67;34.00;20.00
46302;PMS7003;32029;51.358;5.628;2022-08-20T09:06:36;35.33;32.67;22.00
46302;PMS7003;32029;51.358;5.628;2022-08-20T09:09:15;46.75;34.00;21.00
46302;PMS7003;32029;51.358;5.628;2022-08-20T09:11:50;36.33;32.00;20.00
46302;PMS7003;32029;51.358;5.628;2022-08-20T09:14:20;36.00;30.00;18.00
46302;PMS7003;32029;51.358;5.628;2022-08-20T09:16:50;37.00;31.33;19.00
46302;PMS7003;32029;51.358;5.628;2022-08-20T09:19:18;32.25;30.25;18.75
46302;PMS7003;32029;51.358;5.628;2022-08-20T09:21:46;35.75;30.00;17.50
46302;PMS7003;32029;51.358;5.628;2022-08-20T09:24:14;30.00;28.25;17.00
46302;PMS7003;32029;51.358;5.628;2022-08-20T09:26:42;35.75;28.75;18.00
46302;PMS7003;32029;51.358;5.628;2022-08-20T09:29:09;32.67;29.00;19.00
46302;PMS7003;32029;51.358;5.628;2022-08-20T09:31:37;34.00;29.33;18.00
46302;PMS7003;32029;51.358;5.628;2022-08-20T09:34:04;30.00;27.33;16.67
46302;PMS7003;32029;51.358;5.628;2022-08-20T09:36:32;25.33;25.33;16.33
46302;PMS7003;32029;51.358;5.628;2022-08-20T09:39:02;22.00;20.67;14.00
46302;PMS7003;32029;51.358;5.628;2022-08-20T09:41:30;31.75;26.50;15.50
46302;PMS7003;32029;51.358;5.628;2022-08-20T09:43:57;24.00;22.67;13.00
46302;PMS7003;32029;51.358;5.628;2022-08-20T09:46:24;26.67;23.00;15.00
46302;PMS7003;32029;51.358;5.628;2022-08-20T09:48:52;29.33;23.67;15.33
46302;PMS7003;32029;51.358;5.628;2022-08-20T09:51:20;29.00;25.00;16.00
46302;PMS7003;32029;51.358;5.628;2022-08-20T09:53:48;28.67;25.67;16.33
46302;PMS7003;32029;51.358;5.628;2022-08-20T09:56:15;25.67;23.33;15.00
46302;PMS7003;32029;51.358;5.628;2022-08-20T09:58:48;26.00;20.67;14.00
46302;PMS7003;32029;51.358;5.628;2022-08-20T10:01:18;24.00;23.00;17.00
46302;PMS7003;32029;51.358;5.628;2022-08-20T10:03:47;22.33;21.00;14.00
46302;PMS7003;32029;51.358;5.628;2022-08-20T10:06:15;27.33;27.00;17.00
46302;PMS7003;32029;51.358;5.628;2022-08-20T10:08:47;21.67;20.33;14.00
46302;PMS7003;32029;51.358;5.628;2022-08-20T10:11:14;23.00;21.00;15.00
46302;PMS7003;32029;51.358;5.628;2022-08-20T10:13:42;25.33;23.00;16.00
46302;PMS7003;32029;51.358;5.628;2022-08-20T10:16:09;17.67;17.00;12.00
46302;PMS7003;32029;51.358;5.628;2022-08-20T10:18:36;21.00;17.33;12.00
46302;PMS7003;32029;51.358;5.628;2022-08-20T10:21:07;19.33;19.00;13.00
46302;PMS7003;32029;51.358;5.628;2022-08-20T10:23:36;25.33;21.00;14.00
46302;PMS7003;32029;51.358;5.628;2022-08-20T10:26:03;22.67;21.67;14.33
46302;PMS7003;32029;51.358;5.628;2022-08-20T10:28:31;21.33;18.67;14.33
46302;PMS7003;32029;51.358;5.628;2022-08-20T10:30:59;24.00;24.00;16.00
46302;PMS7003;32029;51.358;5.628;2022-08-20T10:33:26;27.67;22.00;15.00
46302;PMS7003;32029;51.358;5.628;2022-08-20T10:35:53;20.00;17.00;11.33
46302;PMS7003;32029;51.358;5.628;2022-08-20T10:38:20;21.00;20.33;12.67
46302;PMS7003;32029;51.358;5.628;2022-08-20T10:40:48;18.67;16.67;12.00
46302;PMS7003;32029;51.358;5.628;2022-08-20T10:43:15;16.00;15.00;12.00
46302;PMS7003;32029;51.358;5.628;2022-08-20T10:45:42;20.00;17.67;12.33
46302;PMS7003;32029;51.358;5.628;2022-08-20T10:48:10;22.33;19.33;14.00
46302;PMS7003;32029;51.358;5.628;2022-08-20T10:50:37;20.67;18.67;13.67
46302;PMS7003;32029;51.358;5.628;2022-08-20T10:53:04;18.00;18.00;15.00
46302;PMS7003;32029;51.358;5.628;2022-08-20T10:55:31;20.00;18.00;13.50
46302;PMS7003;32029;51.358;5.628;2022-08-20T10:57:58;20.67;16.00;11.00
46302;PMS7003;32029;51.358;5.628;2022-08-20T11:00:25;17.00;16.67;12.00
46302;PMS7003;32029;51.358;5.628;2022-08-20T11:02:52;17.50;14.50;10.00
46302;PMS7003;32029;51.358;5.628;2022-08-20T11:05:19;18.00;16.50;11.00
46302;PMS7003;32029;51.358;5.628;2022-08-20T11:07:46;18.50;16.50;13.00
46302;PMS7003;32029;51.358;5.628;2022-08-20T11:10:13;21.67;18.67;12.00
46302;PMS7003;32029;51.358;5.628;2022-08-20T11:12:41;21.00;19.00;13.33
46302;PMS7003;32029;51.358;5.628;2022-08-20T11:15:09;16.00;14.00;11.00
46302;PMS7003;32029;51.358;5.628;2022-08-20T11:17:38;15.33;12.00;9.00
46302;PMS7003;32029;51.358;5.628;2022-08-20T11:20:06;15.67;13.00;9.33
46302;PMS7003;32029;51.358;5.628;2022-08-20T11:22:34;17.50;16.50;11.00
46302;PMS7003;32029;51.358;5.628;2022-08-20T11:25:01;18.50;16.50;11.50
46302;PMS7003;32029;51.358;5.628;2022-08-20T11:27:31;16.67;14.33;10.67
46302;PMS7003;32029;51.358;5.628;2022-08-20T11:30:00;16.00;15.00;11.00
46302;PMS7003;32029;51.358;5.628;2022-08-20T11:32:27;16.33;15.00;11.33
46302;PMS7003;32029;51.358;5.628;2022-08-20T11:34:54;15.00;13.00;9.00
46302;PMS7003;32029;51.358;5.628;2022-08-20T11:37:21;19.67;15.00;10.67
46302;PMS7003;32029;51.358;5.628;2022-08-20T11:39:50;14.50;13.00;9.50
46302;PMS7003;32029;51.358;5.628;2022-08-20T11:42:16;15.33;13.33;10.00
46302;PMS7003;32029;51.358;5.628;2022-08-20T11:44:43;11.00;10.00;6.00
46302;PMS7003;32029;51.358;5.628;2022-08-20T11:47:19;9.20;8.00;6.00
46302;PMS7003;32029;51.358;5.628;2022-08-20T11:49:57;12.00;10.67;7.00
46302;PMS7003;32029;51.358;5.628;2022-08-20T11:52:26;7.00;7.00;6.00
46302;PMS7003;32029;51.358;5.628;2022-08-20T11:54:55;10.20;8.80;6.60
46302;PMS7003;32029;51.358;5.628;2022-08-20T11:57:26;10.80;9.00;7.00
46302;PMS7003;32029;51.358;5.628;2022-08-20T11:59:55;11.00;8.00;6.33
46302;PMS7003;32029;51.358;5.628;2022-08-20T12:02:23;11.67;8.67;6.67
46302;PMS7003;32029;51.358;5.628;2022-08-20T12:04:51;11.60;10.80;7.80
46302;PMS7003;32029;51.358;5.628;2022-08-20T12:07:21;13.00;13.00;9.00
46302;PMS7003;32029;51.358;5.628;2022-08-20T12:09:49;12.00;11.67;9.00
46302;PMS7003;32029;51.358;5.628;2022-08-20T12:12:17;15.00;11.33;8.00
46302;PMS7003;32029;51.358;5.628;2022-08-20T12:14:46;13.00;12.00;8.80
46302;PMS7003;32029;51.358;5.628;2022-08-20T12:17:18;14.33;13.00;9.00
46302;PMS7003;32029;51.358;5.628;2022-08-20T12:19:50;12.00;12.00;8.33
46302;PMS7003;32029;51.358;5.628;2022-08-20T12:22:18;12.67;12.67;8.00
46302;PMS7003;32029;51.358;5.628;2022-08-20T12:24:45;14.33;11.33;8.67
46302;PMS7003;32029;51.358;5.628;2022-08-20T12:27:23;14.33;13.33;9.00
46302;PMS7003;32029;51.358;5.628;2022-08-20T12:29:55;12.33;11.33;8.67
46302;PMS7003;32029;51.358;5.628;2022-08-20T12:32:25;14.33;12.00;8.33
46302;PMS7003;32029;51.358;5.628;2022-08-20T12:34:53;14.00;10.00;8.67
46302;PMS7003;32029;51.358;5.628;2022-08-20T12:37:21;11.00;11.00;8.33
46302;PMS7003;32029;51.358;5.628;2022-08-20T12:39:50;13.00;12.00;9.33
46302;PMS7003;32029;51.358;5.628;2022-08-20T12:42:19;11.00;11.00;8.33
46302;PMS7003;32029;51.358;5.628;2022-08-20T12:44:47;15.67;12.33;9.00
46302;PMS7003;32029;51.358;5.628;2022-08-20T12:47:16;12.67;11.00;9.00
46302;PMS7003;32029;51.358;5.628;2022-08-20T12:49:47;15.50;14.00;10.00
46302;PMS7003;32029;51.358;5.628;2022-08-20T12:52:18;10.67;10.33;8.00
46302;PMS7003;32029;51.358;5.628;2022-08-20T12:54:46;10.67;10.33;7.33
46302;PMS7003;32029;51.358;5.628;2022-08-20T12:57:14;10.00;9.00;7.00
46302;PMS7003;32029;51.358;5.628;2022-08-20T12:59:49;12.00;11.00;7.67
46302;PMS7003;32029;51.358;5.628;2022-08-20T13:02:16;12.67;10.67;9.33
46302;PMS7003;32029;51.358;5.628;2022-08-20T13:04:45;10.67;10.67;9.00
46302;PMS7003;32029;51.358;5.628;2022-08-20T13:07:12;14.33;12.00;9.67
46302;PMS7003;32029;51.358;5.628;2022-08-20T13:09:40;14.33;9.00;8.33
46302;PMS7003;32029;51.358;5.628;2022-08-20T13:12:08;12.00;10.67;9.67
46302;PMS7003;32029;51.358;5.628;2022-08-20T13:14:36;9.00;9.00;7.67
46302;PMS7003;32029;51.358;5.628;2022-08-20T13:17:04;15.00;11.33;9.33
46302;PMS7003;32029;51.358;5.628;2022-08-20T13:19:33;12.33;10.33;8.33
46302;PMS7003;32029;51.358;5.628;2022-08-20T13:22:01;10.00;10.00;9.00
46302;PMS7003;32029;51.358;5.628;2022-08-20T13:24:28;11.33;9.67;8.00
46302;PMS7003;32029;51.358;5.628;2022-08-20T13:27:02;11.00;9.67;7.00
46302;PMS7003;32029;51.358;5.628;2022-08-20T13:29:48;8.67;8.67;6.67
46302;PMS7003;32029;51.358;5.628;2022-08-20T13:32:17;11.67;10.00;8.00
46302;PMS7003;32029;51.358;5.628;2022-08-20T13:34:43;12.67;11.00;8.00
46302;PMS7003;32029;51.358;5.628;2022-08-20T13:39:39;7.00;7.00;6.00
46302;PMS7003;32029;51.358;5.628;2022-08-20T13:42:07;10.00;10.00;8.00
46302;PMS7003;32029;51.358;5.628;2022-08-20T13:44:35;10.67;10.67;8.33
46302;PMS7003;32029;51.358;5.628;2022-08-20T13:47:16;11.00;7.67;7.00
46302;PMS7003;32029;51.358;5.628;2022-08-20T13:50:00;14.00;12.00;11.00
46302;PMS7003;32029;51.358;5.628;2022-08-20T13:52:28;13.00;11.00;9.00
46302;PMS7003;32029;51.358;5.628;2022-08-20T13:54:55;13.67;11.33;9.00
46302;PMS7003;32029;51.358;5.628;2022-08-20T13:57:22;15.50;14.00;12.00
46302;PMS7003;32029;51.358;5.628;2022-08-20T13:59:52;15.00;15.00;13.00
46302;PMS7003;32029;51.358;5.628;2022-08-20T14:02:20;17.50;14.00;11.50
46302;PMS7003;32029;51.358;5.628;2022-08-20T14:04:48;12.33;11.33;10.00
46302;PMS7003;32029;51.358;5.628;2022-08-20T14:07:20;17.00;16.00;13.00
46302;PMS7003;32029;51.358;5.628;2022-08-20T14:09:59;15.50;14.00;13.00